sim
Sign-in with your pilot id or email,
or register
Callsign
Passwort

Schedule Details

Flight Number: EWG1912
Departure: Munich Airport (EDDM) at 05:45
Arrival: Dusseldorf International Airport (EDDL) at 07:00
Route: Eurowings Passenger Schedule. Enter filed route here before submitting Pirep.

Weather Information
Getting current METAR information for EDDM 241620Z 10007KT CAVOK 20/14 Q1007 NOSIG
Getting current METAR information for EDDL 241620Z 17012KT CAVOK 19/06 Q1000 NOSIG

Schedule Frequency

Route Map